SBJU/JDO METAR and TAF weather

Enter ICAO airport designator
Station Type Date Time Source
SBJU METAR 2021/07/28 19:00 UTC NOAA

SBJU 281900Z 32005KT 9999 FEW020 32/17 Q1015


Station Type Date Time Source
SBJU Decoded METAR 2021/07/28 19:00 UTC NOAA

Station name not available
Jul 28, 2021 - 03:00 PM EDT / 2021.07.28 1900 UTC
Wind: from the NW (320 degrees) at 6 MPH (5 KT):0
Visibility: greater than 7 mile(s):0
Sky conditions: mostly clear
Temperature: 89 F (32 C)
Dew Point: 62 F (17 C)
Relative Humidity: 40%
Pressure (altimeter): 29.97 in. Hg (1015 hPa)
ob: SBJU 281900Z 32005KT 9999 FEW020 32/17 Q1015
cycle: 19

Station Type Date Time Source
SBJU TAF 2011/11/01 00:05 UTC NOAA

TAF SBJU 012200Z 0200/0212 00000KT 9999 SCT020 TX28/0200Z TN24/0207Z
BECMG 0210/0212 06005KT
RMK PCE

Example: see airport list